createdAt,value
2023-02-17T00:05:20.004Z,101538.16
2023-02-17T00:12:53.817Z,101531.00
2023-02-17T00:20:31.264Z,101517.53
2023-02-17T00:28:05.581Z,101502.19
2023-02-17T00:35:42.736Z,101500.22
2023-02-17T00:43:16.707Z,101505.50
2023-02-17T00:50:52.034Z,101479.53
2023-02-17T00:58:26.750Z,101476.56
2023-02-17T01:06:06.311Z,101457.84
2023-02-17T01:13:40.415Z,101454.22
2023-02-17T01:21:19.904Z,101450.63
2023-02-17T01:28:54.625Z,101426.59
2023-02-17T01:36:29.858Z,101426.59
2023-02-17T01:44:13.886Z,101419.50
2023-02-17T01:51:54.006Z,101402.66
2023-02-17T01:59:29.795Z,101402.78
2023-02-17T02:07:07.639Z,101390.31
2023-02-17T02:14:41.767Z,101384.06
2023-02-17T02:22:36.827Z,101359.97
2023-02-17T02:30:45.153Z,101337.69
2023-02-17T02:38:27.099Z,101325.19
2023-02-17T02:46:01.154Z,101320.63
2023-02-17T02:53:59.750Z,101310.72
2023-02-17T03:01:44.581Z,101305.34
2023-02-17T03:09:23.501Z,101286.75
2023-02-17T03:16:57.422Z,101278.72
2023-02-17T03:24:33.194Z,101270.00
2023-02-17T03:32:08.449Z,101263.69
2023-02-17T03:39:43.864Z,101279.63
2023-02-17T03:47:17.848Z,101269.94
2023-02-17T03:54:53.675Z,101261.97
2023-02-17T04:02:27.942Z,101254.94
2023-02-17T04:10:05.475Z,101251.44
2023-02-17T04:17:40.118Z,101242.63
2023-02-17T04:25:15.950Z,101237.34
2023-02-17T04:32:50.000Z,101231.19
2023-02-17T04:40:25.396Z,101207.28
2023-02-17T04:47:59.701Z,101216.16
2023-02-17T04:55:35.117Z,101211.00
2023-02-17T05:03:09.120Z,101200.38
2023-02-17T05:10:44.793Z,101196.75
2023-02-17T05:18:18.847Z,101191.53
2023-02-17T05:25:54.274Z,101180.81
2023-02-17T05:33:28.395Z,101170.25
2023-02-17T05:41:03.780Z,101164.09
2023-02-17T05:48:37.723Z,101162.38
2023-02-17T05:56:13.251Z,101170.34
2023-02-17T06:03:47.023Z,101157.09
2023-02-17T06:11:22.326Z,101157.16
2023-02-17T06:18:56.299Z,101147.56
2023-02-17T06:26:32.662Z,101131.66
2023-02-17T06:34:06.855Z,101131.97
2023-02-17T06:41:42.964Z,101128.66
2023-02-17T06:49:16.848Z,101111.97
2023-02-17T06:56:52.132Z,101111.34
2023-02-17T07:04:26.192Z,101110.69
2023-02-17T07:12:02.171Z,101103.78
2023-02-17T07:19:36.440Z,101095.16
2023-02-17T07:27:11.736Z,101098.09
2023-02-17T07:42:38.396Z,101085.53
2023-02-17T07:50:12.681Z,101067.28
2023-02-17T07:57:48.042Z,101063.22
2023-02-17T08:38:51.430Z,101051.75
2023-02-17T08:46:27.913Z,101050.94
2023-02-17T08:54:03.608Z,101051.03
2023-02-17T09:01:40.034Z,101027.06
2023-02-17T09:09:16.891Z,101007.50
2023-02-17T09:16:52.571Z,100994.34
2023-02-17T09:24:26.862Z,100968.59
2023-02-17T09:32:03.215Z,100957.09
2023-02-17T09:39:37.363Z,100942.81
2023-02-17T09:47:18.427Z,100943.75
2023-02-17T09:55:04.130Z,100923.50
2023-02-17T10:02:48.265Z,100921.63
2023-02-17T10:10:26.756Z,100905.69
2023-02-17T10:18:10.825Z,100894.22
2023-02-17T10:26:15.468Z,100888.97
2023-02-17T10:41:51.182Z,100862.59
2023-02-17T10:49:30.829Z,100846.81
2023-02-17T10:57:09.309Z,100846.94
2023-02-17T11:04:46.025Z,100806.19
2023-02-17T11:12:26.264Z,100773.50
2023-02-17T11:20:04.830Z,100758.53
2023-02-17T11:27:38.996Z,100744.41
2023-02-17T11:35:27.518Z,100717.06
2023-02-17T11:43:03.128Z,100701.19
2023-02-17T11:50:46.315Z,100683.56
2023-02-17T11:58:35.107Z,100654.41
2023-02-17T12:06:16.238Z,100632.41
2023-02-17T12:14:03.860Z,100643.16
2023-02-17T12:21:53.612Z,100638.09
2023-02-17T12:45:42.801Z,100564.00
2023-02-17T12:53:28.464Z,100563.44
2023-02-17T13:01:09.444Z,100554.56
2023-02-17T13:08:49.658Z,100572.47
2023-02-17T13:16:24.425Z,100558.41
2023-02-17T13:24:04.973Z,100562.06
2023-02-17T13:31:48.075Z,100558.56
2023-02-17T13:39:35.350Z,100546.13
2023-02-17T13:47:17.731Z,100528.31
2023-02-17T13:54:57.861Z,100528.34
2023-02-17T14:02:36.359Z,100532.84
2023-02-17T14:10:32.512Z,100538.22
2023-02-17T14:18:14.676Z,100554.38
2023-02-17T14:25:51.511Z,100552.63
2023-02-17T14:33:25.847Z,100550.81
2023-02-17T14:41:01.211Z,100553.53
2023-02-17T14:56:32.893Z,100581.94
2023-02-17T15:04:07.064Z,100588.88
2023-02-17T15:11:45.902Z,100593.13
2023-02-17T15:19:21.450Z,100575.16
2023-02-17T15:26:57.237Z,100578.69
2023-02-17T15:34:33.558Z,100565.25
2023-02-17T15:42:14.366Z,100544.69
2023-02-17T15:49:48.574Z,100553.63
2023-02-17T15:57:25.814Z,100529.53
2023-02-17T16:04:59.624Z,100536.69
2023-02-17T16:12:35.153Z,100537.56
2023-02-17T16:20:17.718Z,100556.31
2023-02-17T16:27:54.343Z,100549.22
2023-02-17T16:35:30.506Z,100583.09
2023-02-17T16:43:06.407Z,100576.22
2023-02-17T16:50:40.349Z,100594.06
2023-02-17T17:06:19.275Z,100603.81
2023-02-17T17:13:55.871Z,100592.81
2023-02-17T17:21:30.121Z,100580.28
2023-02-17T17:29:05.345Z,100599.03
2023-02-17T17:36:41.462Z,100579.44
2023-02-17T17:44:16.758Z,100597.34
2023-02-17T17:51:52.000Z,100601.75
2023-02-17T17:59:27.421Z,100611.63
2023-02-17T18:07:01.552Z,100617.03
2023-02-17T18:14:40.285Z,100628.63
2023-02-17T18:22:14.464Z,100645.69
2023-02-17T18:37:41.994Z,100714.63
2023-02-17T18:45:18.340Z,100727.50
2023-02-17T18:52:52.262Z,100743.34
2023-02-17T19:00:27.974Z,100744.16
2023-02-17T19:15:54.643Z,100754.91
2023-02-17T19:23:29.431Z,100794.88
2023-02-17T19:31:07.424Z,100825.97
2023-02-17T19:46:34.646Z,100855.53
2023-02-17T19:54:08.636Z,100867.69
2023-02-17T20:01:44.333Z,100879.00
2023-02-17T20:09:20.106Z,100901.66
2023-02-17T20:16:56.530Z,100884.59
2023-02-17T20:24:30.489Z,100898.50
2023-02-17T20:32:06.933Z,100894.59
2023-02-17T20:39:42.181Z,100899.66
2023-02-17T20:47:17.905Z,100912.03
2023-02-17T20:54:51.938Z,100949.91
2023-02-17T21:02:27.344Z,100955.03
2023-02-17T21:10:01.955Z,100976.13
2023-02-17T21:17:37.448Z,100983.75
2023-02-17T21:25:12.160Z,100997.66
2023-02-17T21:32:47.649Z,100992.09
2023-02-17T21:40:21.814Z,100999.78
2023-02-17T21:47:57.374Z,101012.81
2023-02-17T21:55:31.222Z,101017.75
2023-02-17T22:03:06.495Z,101030.88
2023-02-17T22:10:41.277Z,101041.44
2023-02-17T22:18:16.494Z,101055.31
2023-02-17T22:25:50.463Z,101079.16
2023-02-17T22:33:25.762Z,101080.81
2023-02-17T22:40:59.816Z,101087.69
2023-02-17T22:48:37.216Z,101107.09
2023-02-17T22:56:11.867Z,101098.06
2023-02-17T23:03:49.639Z,101101.50
2023-02-17T23:11:39.038Z,101111.94
2023-02-17T23:19:16.849Z,101114.41
2023-02-17T23:26:51.813Z,101116.06
2023-02-17T23:34:28.506Z,101125.78
2023-02-17T23:42:02.342Z,101129.22
2023-02-17T23:49:37.724Z,101124.56
2023-02-17T23:57:11.746Z,101135.84
